sensor_id;sensor_type;location;lat;lon;timestamp;P1;durP1;ratioP1;P2;durP2;ratioP2
15312;SDS011;7757;52.626;4.746;2022-09-28T00:00:58;6.43;;;1.42;;
15312;SDS011;7757;52.626;4.746;2022-09-28T00:03:24;7.45;;;1.67;;
15312;SDS011;7757;52.626;4.746;2022-09-28T00:05:52;7.03;;;1.60;;
15312;SDS011;7757;52.626;4.746;2022-09-28T00:08:24;6.72;;;1.60;;
15312;SDS011;7757;52.626;4.746;2022-09-28T00:10:54;8.95;;;1.70;;
15312;SDS011;7757;52.626;4.746;2022-09-28T00:13:21;5.35;;;1.25;;
15312;SDS011;7757;52.626;4.746;2022-09-28T00:15:57;7.18;;;1.60;;
15312;SDS011;7757;52.626;4.746;2022-09-28T00:18:24;6.70;;;1.60;;
15312;SDS011;7757;52.626;4.746;2022-09-28T00:20:58;8.25;;;1.60;;
15312;SDS011;7757;52.626;4.746;2022-09-28T00:25:51;7.53;;;1.40;;
15312;SDS011;7757;52.626;4.746;2022-09-28T00:28:19;6.47;;;1.55;;
15312;SDS011;7757;52.626;4.746;2022-09-28T00:30:45;5.28;;;1.17;;
15312;SDS011;7757;52.626;4.746;2022-09-28T00:33:12;4.47;;;1.20;;
15312;SDS011;7757;52.626;4.746;2022-09-28T00:35:38;6.28;;;1.40;;
15312;SDS011;7757;52.626;4.746;2022-09-28T00:38:05;6.00;;;1.35;;
15312;SDS011;7757;52.626;4.746;2022-09-28T00:40:33;4.93;;;1.20;;
15312;SDS011;7757;52.626;4.746;2022-09-28T00:43:15;4.15;;;1.15;;
15312;SDS011;7757;52.626;4.746;2022-09-28T00:45:43;3.75;;;1.15;;
15312;SDS011;7757;52.626;4.746;2022-09-28T00:48:12;2.53;;;1.10;;
15312;SDS011;7757;52.626;4.746;2022-09-28T00:50:38;3.80;;;1.20;;
15312;SDS011;7757;52.626;4.746;2022-09-28T00:53:05;3.42;;;0.88;;
15312;SDS011;7757;52.626;4.746;2022-09-28T00:55:37;5.13;;;1.23;;
15312;SDS011;7757;52.626;4.746;2022-09-28T00:58:08;3.33;;;0.90;;
15312;SDS011;7757;52.626;4.746;2022-09-28T01:00:36;5.47;;;1.25;;
15312;SDS011;7757;52.626;4.746;2022-09-28T01:03:06;5.43;;;1.40;;
15312;SDS011;7757;52.626;4.746;2022-09-28T01:05:33;3.35;;;1.08;;
15312;SDS011;7757;52.626;4.746;2022-09-28T01:08:01;4.57;;;1.00;;
15312;SDS011;7757;52.626;4.746;2022-09-28T01:10:28;3.38;;;1.20;;
15312;SDS011;7757;52.626;4.746;2022-09-28T01:12:56;3.92;;;1.00;;
15312;SDS011;7757;52.626;4.746;2022-09-28T01:15:23;6.63;;;1.10;;
15312;SDS011;7757;52.626;4.746;2022-09-28T01:17:56;4.13;;;0.95;;
15312;SDS011;7757;52.626;4.746;2022-09-28T01:20:36;4.93;;;1.00;;
15312;SDS011;7757;52.626;4.746;2022-09-28T01:23:26;4.70;;;1.13;;
15312;SDS011;7757;52.626;4.746;2022-09-28T01:29:06;3.70;;;0.68;;
15312;SDS011;7757;52.626;4.746;2022-09-28T01:31:39;4.97;;;1.15;;
15312;SDS011;7757;52.626;4.746;2022-09-28T01:34:11;4.25;;;1.05;;
15312;SDS011;7757;52.626;4.746;2022-09-28T01:36:42;3.08;;;0.90;;
15312;SDS011;7757;52.626;4.746;2022-09-28T01:39:15;2.63;;;0.70;;
15312;SDS011;7757;52.626;4.746;2022-09-28T01:41:49;2.67;;;0.80;;
15312;SDS011;7757;52.626;4.746;2022-09-28T01:44:18;2.95;;;0.80;;
15312;SDS011;7757;52.626;4.746;2022-09-28T01:46:48;3.40;;;0.90;;
15312;SDS011;7757;52.626;4.746;2022-09-28T01:49:17;3.65;;;0.95;;
15312;SDS011;7757;52.626;4.746;2022-09-28T01:51:47;1.73;;;0.80;;
15312;SDS011;7757;52.626;4.746;2022-09-28T01:54:21;2.88;;;0.80;;
15312;SDS011;7757;52.626;4.746;2022-09-28T01:56:53;2.38;;;0.63;;
15312;SDS011;7757;52.626;4.746;2022-09-28T01:59:24;2.88;;;0.70;;
15312;SDS011;7757;52.626;4.746;2022-09-28T02:01:55;7.30;;;0.98;;
15312;SDS011;7757;52.626;4.746;2022-09-28T02:04:25;5.00;;;0.77;;
15312;SDS011;7757;52.626;4.746;2022-09-28T02:07:00;3.10;;;0.80;;
15312;SDS011;7757;52.626;4.746;2022-09-28T02:09:32;1.77;;;0.70;;
15312;SDS011;7757;52.626;4.746;2022-09-28T02:12:06;1.50;;;0.50;;
15312;SDS011;7757;52.626;4.746;2022-09-28T02:14:36;4.82;;;0.80;;
15312;SDS011;7757;52.626;4.746;2022-09-28T02:17:05;4.47;;;0.80;;
15312;SDS011;7757;52.626;4.746;2022-09-28T02:19:32;3.22;;;0.70;;
15312;SDS011;7757;52.626;4.746;2022-09-28T02:22:00;1.95;;;0.73;;
15312;SDS011;7757;52.626;4.746;2022-09-28T02:27:04;3.10;;;0.70;;
15312;SDS011;7757;52.626;4.746;2022-09-28T02:29:36;1.67;;;0.50;;
15312;SDS011;7757;52.626;4.746;2022-09-28T02:32:03;1.67;;;0.70;;
15312;SDS011;7757;52.626;4.746;2022-09-28T02:34:29;2.17;;;0.60;;
15312;SDS011;7757;52.626;4.746;2022-09-28T02:36:56;3.30;;;0.75;;
15312;SDS011;7757;52.626;4.746;2022-09-28T02:39:23;1.73;;;0.60;;
15312;SDS011;7757;52.626;4.746;2022-09-28T02:41:53;1.02;;;0.65;;
15312;SDS011;7757;52.626;4.746;2022-09-28T02:44:36;2.92;;;0.80;;
15312;SDS011;7757;52.626;4.746;2022-09-28T02:47:13;2.70;;;0.70;;
15312;SDS011;7757;52.626;4.746;2022-09-28T02:49:51;2.20;;;0.65;;
15312;SDS011;7757;52.626;4.746;2022-09-28T02:52:32;2.30;;;0.60;;
15312;SDS011;7757;52.626;4.746;2022-09-28T02:55:19;3.22;;;0.65;;
15312;SDS011;7757;52.626;4.746;2022-09-28T02:58:07;2.65;;;0.70;;
15312;SDS011;7757;52.626;4.746;2022-09-28T03:00:53;7.53;;;1.00;;
15312;SDS011;7757;52.626;4.746;2022-09-28T03:03:26;1.65;;;0.60;;
15312;SDS011;7757;52.626;4.746;2022-09-28T03:05:58;4.63;;;0.93;;
15312;SDS011;7757;52.626;4.746;2022-09-28T03:08:29;2.30;;;0.73;;
15312;SDS011;7757;52.626;4.746;2022-09-28T03:11:01;7.25;;;0.90;;
15312;SDS011;7757;52.626;4.746;2022-09-28T03:13:32;4.82;;;0.75;;
15312;SDS011;7757;52.626;4.746;2022-09-28T03:16:08;3.05;;;0.63;;
15312;SDS011;7757;52.626;4.746;2022-09-28T03:18:36;3.25;;;0.70;;
15312;SDS011;7757;52.626;4.746;2022-09-28T03:21:03;4.97;;;0.82;;
15312;SDS011;7757;52.626;4.746;2022-09-28T03:23:30;4.63;;;0.70;;
15312;SDS011;7757;52.626;4.746;2022-09-28T03:25:57;3.35;;;0.70;;
15312;SDS011;7757;52.626;4.746;2022-09-28T03:28:24;1.52;;;0.52;;
15312;SDS011;7757;52.626;4.746;2022-09-28T03:30:52;2.22;;;0.75;;
15312;SDS011;7757;52.626;4.746;2022-09-28T03:33:20;1.42;;;0.50;;
15312;SDS011;7757;52.626;4.746;2022-09-28T03:35:47;1.48;;;0.57;;
15312;SDS011;7757;52.626;4.746;2022-09-28T03:38:14;2.08;;;0.77;;
15312;SDS011;7757;52.626;4.746;2022-09-28T03:40:42;1.90;;;0.75;;
15312;SDS011;7757;52.626;4.746;2022-09-28T03:43:08;3.38;;;0.88;;
15312;SDS011;7757;52.626;4.746;2022-09-28T03:45:35;3.65;;;0.68;;
15312;SDS011;7757;52.626;4.746;2022-09-28T03:48:01;3.15;;;0.80;;
15312;SDS011;7757;52.626;4.746;2022-09-28T03:50:29;2.38;;;0.80;;
15312;SDS011;7757;52.626;4.746;2022-09-28T03:53:00;1.67;;;0.70;;
15312;SDS011;7757;52.626;4.746;2022-09-28T03:55:27;4.22;;;0.75;;
15312;SDS011;7757;52.626;4.746;2022-09-28T03:57:53;3.72;;;0.80;;
15312;SDS011;7757;52.626;4.746;2022-09-28T04:00:20;3.15;;;0.73;;
15312;SDS011;7757;52.626;4.746;2022-09-28T04:02:47;2.35;;;0.70;;
15312;SDS011;7757;52.626;4.746;2022-09-28T04:05:14;1.85;;;0.75;;
15312;SDS011;7757;52.626;4.746;2022-09-28T04:07:42;1.90;;;0.63;;
15312;SDS011;7757;52.626;4.746;2022-09-28T04:10:09;3.90;;;1.30;;
15312;SDS011;7757;52.626;4.746;2022-09-28T04:12:35;2.63;;;0.77;;
15312;SDS011;7757;52.626;4.746;2022-09-28T04:15:02;1.98;;;0.52;;
15312;SDS011;7757;52.626;4.746;2022-09-28T04:17:29;3.13;;;0.90;;
15312;SDS011;7757;52.626;4.746;2022-09-28T04:19:56;3.40;;;0.70;;
15312;SDS011;7757;52.626;4.746;2022-09-28T04:22:23;2.58;;;0.88;;
15312;SDS011;7757;52.626;4.746;2022-09-28T04:24:51;2.58;;;0.80;;
15312;SDS011;7757;52.626;4.746;2022-09-28T04:27:17;2.72;;;0.70;;
15312;SDS011;7757;52.626;4.746;2022-09-28T04:30:01;1.83;;;0.65;;
15312;SDS011;7757;52.626;4.746;2022-09-28T04:32:28;4.47;;;0.90;;
15312;SDS011;7757;52.626;4.746;2022-09-28T04:34:55;3.25;;;0.88;;
15312;SDS011;7757;52.626;4.746;2022-09-28T04:37:21;4.30;;;1.13;;
15312;SDS011;7757;52.626;4.746;2022-09-28T04:39:48;1.52;;;0.80;;
15312;SDS011;7757;52.626;4.746;2022-09-28T04:42:16;4.55;;;1.05;;
15312;SDS011;7757;52.626;4.746;2022-09-28T04:44:42;3.22;;;0.95;;
15312;SDS011;7757;52.626;4.746;2022-09-28T04:47:08;2.95;;;0.75;;
15312;SDS011;7757;52.626;4.746;2022-09-28T04:49:35;1.42;;;0.63;;
15312;SDS011;7757;52.626;4.746;2022-09-28T04:52:02;3.95;;;0.90;;
15312;SDS011;7757;52.626;4.746;2022-09-28T04:54:29;3.33;;;1.00;;
15312;SDS011;7757;52.626;4.746;2022-09-28T04:56:55;2.47;;;0.60;;
15312;SDS011;7757;52.626;4.746;2022-09-28T04:59:23;1.80;;;0.70;;
15312;SDS011;7757;52.626;4.746;2022-09-28T05:01:51;3.15;;;0.73;;
15312;SDS011;7757;52.626;4.746;2022-09-28T05:04:18;2.55;;;0.75;;
15312;SDS011;7757;52.626;4.746;2022-09-28T05:06:44;4.05;;;1.00;;
15312;SDS011;7757;52.626;4.746;2022-09-28T05:09:11;3.85;;;0.90;;
15312;SDS011;7757;52.626;4.746;2022-09-28T05:11:37;3.50;;;0.90;;
15312;SDS011;7757;52.626;4.746;2022-09-28T05:14:04;2.75;;;0.95;;
15312;SDS011;7757;52.626;4.746;2022-09-28T05:16:32;2.88;;;0.77;;
15312;SDS011;7757;52.626;4.746;2022-09-28T05:18:59;4.47;;;0.90;;
15312;SDS011;7757;52.626;4.746;2022-09-28T05:21:26;3.80;;;0.95;;
15312;SDS011;7757;52.626;4.746;2022-09-28T05:23:54;5.75;;;0.82;;
15312;SDS011;7757;52.626;4.746;2022-09-28T05:26:22;3.70;;;0.90;;
15312;SDS011;7757;52.626;4.746;2022-09-28T05:28:49;9.30;;;0.93;;
15312;SDS011;7757;52.626;4.746;2022-09-28T05:31:15;3.10;;;0.90;;
15312;SDS011;7757;52.626;4.746;2022-09-28T05:33:43;3.53;;;1.10;;
15312;SDS011;7757;52.626;4.746;2022-09-28T05:36:10;15.10;;;1.17;;
15312;SDS011;7757;52.626;4.746;2022-09-28T05:38:37;9.05;;;1.05;;
15312;SDS011;7757;52.626;4.746;2022-09-28T05:41:03;5.28;;;1.00;;
15312;SDS011;7757;52.626;4.746;2022-09-28T05:43:30;3.05;;;0.70;;
15312;SDS011;7757;52.626;4.746;2022-09-28T05:45:57;3.15;;;0.80;;
15312;SDS011;7757;52.626;4.746;2022-09-28T05:48:24;4.22;;;0.93;;
15312;SDS011;7757;52.626;4.746;2022-09-28T05:50:53;4.03;;;0.98;;
15312;SDS011;7757;52.626;4.746;2022-09-28T05:53:20;4.03;;;1.05;;
15312;SDS011;7757;52.626;4.746;2022-09-28T05:55:46;3.03;;;1.25;;
15312;SDS011;7757;52.626;4.746;2022-09-28T05:58:13;4.07;;;1.00;;
15312;SDS011;7757;52.626;4.746;2022-09-28T06:00:40;4.68;;;1.02;;
15312;SDS011;7757;52.626;4.746;2022-09-28T06:03:07;4.03;;;1.17;;
15312;SDS011;7757;52.626;4.746;2022-09-28T06:05:36;4.65;;;1.00;;
15312;SDS011;7757;52.626;4.746;2022-09-28T06:08:05;3.25;;;0.95;;
15312;SDS011;7757;52.626;4.746;2022-09-28T06:10:34;2.97;;;0.90;;
15312;SDS011;7757;52.626;4.746;2022-09-28T06:13:00;4.18;;;1.02;;
15312;SDS011;7757;52.626;4.746;2022-09-28T06:15:28;4.43;;;1.15;;
15312;SDS011;7757;52.626;4.746;2022-09-28T06:17:56;3.22;;;1.00;;
15312;SDS011;7757;52.626;4.746;2022-09-28T06:20:23;6.53;;;1.10;;
15312;SDS011;7757;52.626;4.746;2022-09-28T06:22:50;7.45;;;1.25;;
15312;SDS011;7757;52.626;4.746;2022-09-28T06:25:19;3.28;;;1.17;;
15312;SDS011;7757;52.626;4.746;2022-09-28T06:27:56;5.25;;;1.08;;
15312;SDS011;7757;52.626;4.746;2022-09-28T06:30:23;3.22;;;1.10;;
15312;SDS011;7757;52.626;4.746;2022-09-28T06:32:52;5.35;;;1.05;;
15312;SDS011;7757;52.626;4.746;2022-09-28T06:35:20;4.60;;;1.10;;
15312;SDS011;7757;52.626;4.746;2022-09-28T06:37:47;6.28;;;1.20;;
15312;SDS011;7757;52.626;4.746;2022-09-28T06:40:14;3.45;;;0.90;;
15312;SDS011;7757;52.626;4.746;2022-09-28T06:42:42;6.07;;;1.25;;
15312;SDS011;7757;52.626;4.746;2022-09-28T06:45:08;4.90;;;1.15;;
15312;SDS011;7757;52.626;4.746;2022-09-28T06:47:37;14.65;;;2.92;;
15312;SDS011;7757;52.626;4.746;2022-09-28T06:50:04;15.10;;;2.67;;
15312;SDS011;7757;52.626;4.746;2022-09-28T06:52:36;13.30;;;2.70;;
15312;SDS011;7757;52.626;4.746;2022-09-28T06:55:03;13.15;;;2.65;;
15312;SDS011;7757;52.626;4.746;2022-09-28T06:57:30;15.98;;;2.83;;
15312;SDS011;7757;52.626;4.746;2022-09-28T06:59:58;15.10;;;3.10;;
15312;SDS011;7757;52.626;4.746;2022-09-28T07:02:25;18.13;;;3.03;;
15312;SDS011;7757;52.626;4.746;2022-09-28T07:04:51;16.85;;;3.10;;
15312;SDS011;7757;52.626;4.746;2022-09-28T07:07:18;17.85;;;3.20;;
15312;SDS011;7757;52.626;4.746;2022-09-28T07:09:44;14.80;;;3.03;;
15312;SDS011;7757;52.626;4.746;2022-09-28T07:12:11;18.15;;;3.30;;
15312;SDS011;7757;52.626;4.746;2022-09-28T07:14:37;13.65;;;2.85;;
15312;SDS011;7757;52.626;4.746;2022-09-28T07:17:06;14.07;;;2.88;;
15312;SDS011;7757;52.626;4.746;2022-09-28T07:19:33;13.73;;;2.97;;
15312;SDS011;7757;52.626;4.746;2022-09-28T07:22:00;16.70;;;3.00;;
15312;SDS011;7757;52.626;4.746;2022-09-28T07:24:27;15.82;;;3.63;;
15312;SDS011;7757;52.626;4.746;2022-09-28T07:26:54;14.15;;;3.08;;
15312;SDS011;7757;52.626;4.746;2022-09-28T07:29:21;16.50;;;3.70;;
15312;SDS011;7757;52.626;4.746;2022-09-28T07:31:47;15.75;;;3.58;;
15312;SDS011;7757;52.626;4.746;2022-09-28T07:34:15;17.25;;;3.88;;
15312;SDS011;7757;52.626;4.746;2022-09-28T07:36:42;14.13;;;3.30;;
15312;SDS011;7757;52.626;4.746;2022-09-28T07:39:09;17.05;;;3.35;;
15312;SDS011;7757;52.626;4.746;2022-09-28T07:41:36;17.52;;;3.25;;
15312;SDS011;7757;52.626;4.746;2022-09-28T07:44:03;18.25;;;3.33;;
15312;SDS011;7757;52.626;4.746;2022-09-28T07:46:31;13.27;;;2.20;;
15312;SDS011;7757;52.626;4.746;2022-09-28T07:48:57;14.65;;;2.90;;
15312;SDS011;7757;52.626;4.746;2022-09-28T07:51:25;16.38;;;3.05;;
15312;SDS011;7757;52.626;4.746;2022-09-28T07:53:53;14.40;;;3.13;;
15312;SDS011;7757;52.626;4.746;2022-09-28T07:56:19;15.68;;;3.05;;
15312;SDS011;7757;52.626;4.746;2022-09-28T07:58:46;10.05;;;1.92;;
15312;SDS011;7757;52.626;4.746;2022-09-28T08:01:13;14.00;;;2.58;;
15312;SDS011;7757;52.626;4.746;2022-09-28T08:03:40;13.75;;;2.30;;
15312;SDS011;7757;52.626;4.746;2022-09-28T08:06:09;8.85;;;1.85;;
15312;SDS011;7757;52.626;4.746;2022-09-28T08:08:38;13.07;;;2.40;;
15312;SDS011;7757;52.626;4.746;2022-09-28T08:11:08;11.35;;;2.38;;
15312;SDS011;7757;52.626;4.746;2022-09-28T08:13:35;11.65;;;2.20;;
15312;SDS011;7757;52.626;4.746;2022-09-28T08:16:03;12.38;;;2.45;;
15312;SDS011;7757;52.626;4.746;2022-09-28T08:18:31;12.13;;;1.92;;
15312;SDS011;7757;52.626;4.746;2022-09-28T08:20:58;7.20;;;1.30;;
15312;SDS011;7757;52.626;4.746;2022-09-28T08:23:44;13.10;;;2.00;;
15312;SDS011;7757;52.626;4.746;2022-09-28T08:26:10;8.27;;;1.63;;
15312;SDS011;7757;52.626;4.746;2022-09-28T08:28:37;8.32;;;1.88;;
15312;SDS011;7757;52.626;4.746;2022-09-28T08:31:04;10.32;;;2.33;;
15312;SDS011;7757;52.626;4.746;2022-09-28T08:33:31;8.10;;;1.60;;
15312;SDS011;7757;52.626;4.746;2022-09-28T08:35:59;14.88;;;2.22;;
15312;SDS011;7757;52.626;4.746;2022-09-28T08:38:27;10.30;;;2.20;;
15312;SDS011;7757;52.626;4.746;2022-09-28T08:41:02;10.80;;;2.25;;
15312;SDS011;7757;52.626;4.746;2022-09-28T08:43:40;8.35;;;1.80;;
15312;SDS011;7757;52.626;4.746;2022-09-28T08:46:15;7.60;;;1.30;;
15312;SDS011;7757;52.626;4.746;2022-09-28T08:48:47;4.40;;;1.10;;
15312;SDS011;7757;52.626;4.746;2022-09-28T08:51:19;9.07;;;1.75;;
15312;SDS011;7757;52.626;4.746;2022-09-28T08:53:51;9.00;;;1.85;;
15312;SDS011;7757;52.626;4.746;2022-09-28T08:56:30;10.35;;;1.88;;
15312;SDS011;7757;52.626;4.746;2022-09-28T08:59:08;10.70;;;2.10;;
15312;SDS011;7757;52.626;4.746;2022-09-28T09:01:37;8.50;;;1.75;;
15312;SDS011;7757;52.626;4.746;2022-09-28T09:04:09;5.38;;;1.25;;
15312;SDS011;7757;52.626;4.746;2022-09-28T09:06:41;7.72;;;1.70;;
15312;SDS011;7757;52.626;4.746;2022-09-28T09:09:29;9.68;;;1.65;;
15312;SDS011;7757;52.626;4.746;2022-09-28T09:12:08;3.08;;;0.90;;
15312;SDS011;7757;52.626;4.746;2022-09-28T09:14:57;6.75;;;1.60;;
15312;SDS011;7757;52.626;4.746;2022-09-28T09:17:42;7.93;;;1.70;;
15312;SDS011;7757;52.626;4.746;2022-09-28T09:20:17;9.80;;;1.58;;
15312;SDS011;7757;52.626;4.746;2022-09-28T09:22:50;8.23;;;1.58;;
15312;SDS011;7757;52.626;4.746;2022-09-28T09:25:25;7.43;;;1.52;;
15312;SDS011;7757;52.626;4.746;2022-09-28T09:28:01;7.97;;;1.38;;
15312;SDS011;7757;52.626;4.746;2022-09-28T09:30:39;8.53;;;1.67;;
15312;SDS011;7757;52.626;4.746;2022-09-28T09:38:49;4.13;;;1.48;;
15312;SDS011;7757;52.626;4.746;2022-09-28T09:41:30;3.97;;;1.00;;
15312;SDS011;7757;52.626;4.746;2022-09-28T09:44:13;4.53;;;0.90;;
15312;SDS011;7757;52.626;4.746;2022-09-28T09:46:53;4.85;;;1.05;;
15312;SDS011;7757;52.626;4.746;2022-09-28T09:49:27;5.13;;;0.90;;
15312;SDS011;7757;52.626;4.746;2022-09-28T09:52:00;6.82;;;1.50;;
15312;SDS011;7757;52.626;4.746;2022-09-28T09:54:33;4.97;;;1.00;;
15312;SDS011;7757;52.626;4.746;2022-09-28T09:57:04;3.55;;;0.82;;
15312;SDS011;7757;52.626;4.746;2022-09-28T09:59:39;6.65;;;1.60;;
15312;SDS011;7757;52.626;4.746;2022-09-28T10:02:11;6.13;;;1.05;;
15312;SDS011;7757;52.626;4.746;2022-09-28T10:04:47;5.82;;;1.40;;
15312;SDS011;7757;52.626;4.746;2022-09-28T10:07:19;4.03;;;1.15;;
15312;SDS011;7757;52.626;4.746;2022-09-28T10:09:49;4.68;;;1.17;;
15312;SDS011;7757;52.626;4.746;2022-09-28T10:12:20;3.97;;;0.90;;
15312;SDS011;7757;52.626;4.746;2022-09-28T10:14:50;5.32;;;1.25;;
15312;SDS011;7757;52.626;4.746;2022-09-28T10:17:19;4.35;;;1.00;;
15312;SDS011;7757;52.626;4.746;2022-09-28T10:19:50;6.70;;;1.40;;
15312;SDS011;7757;52.626;4.746;2022-09-28T10:22:19;1.60;;;0.73;;
15312;SDS011;7757;52.626;4.746;2022-09-28T10:24:50;7.60;;;1.08;;
15312;SDS011;7757;52.626;4.746;2022-09-28T10:27:23;5.50;;;1.20;;
15312;SDS011;7757;52.626;4.746;2022-09-28T10:29:54;6.75;;;1.10;;
15312;SDS011;7757;52.626;4.746;2022-09-28T10:32:24;4.60;;;1.00;;
15312;SDS011;7757;52.626;4.746;2022-09-28T10:34:52;3.28;;;0.95;;
15312;SDS011;7757;52.626;4.746;2022-09-28T10:37:19;4.85;;;1.20;;
15312;SDS011;7757;52.626;4.746;2022-09-28T10:39:48;6.22;;;1.20;;
15312;SDS011;7757;52.626;4.746;2022-09-28T10:42:19;5.03;;;0.90;;
15312;SDS011;7757;52.626;4.746;2022-09-28T10:44:49;3.13;;;0.90;;
15312;SDS011;7757;52.626;4.746;2022-09-28T10:47:21;7.70;;;1.20;;
15312;SDS011;7757;52.626;4.746;2022-09-28T10:49:49;5.43;;;1.10;;
15312;SDS011;7757;52.626;4.746;2022-09-28T10:52:29;7.82;;;1.00;;
15312;SDS011;7757;52.626;4.746;2022-09-28T10:54:57;4.15;;;0.80;;
15312;SDS011;7757;52.626;4.746;2022-09-28T10:57:26;5.72;;;1.00;;
15312;SDS011;7757;52.626;4.746;2022-09-28T10:59:53;3.30;;;0.85;;
15312;SDS011;7757;52.626;4.746;2022-09-28T11:02:22;4.90;;;0.82;;
15312;SDS011;7757;52.626;4.746;2022-09-28T11:04:52;2.10;;;0.70;;
15312;SDS011;7757;52.626;4.746;2022-09-28T11:07:21;4.63;;;0.85;;
15312;SDS011;7757;52.626;4.746;2022-09-28T11:09:49;2.03;;;0.70;;
15312;SDS011;7757;52.626;4.746;2022-09-28T11:12:19;2.05;;;0.75;;
15312;SDS011;7757;52.626;4.746;2022-09-28T11:14:47;4.05;;;0.90;;
15312;SDS011;7757;52.626;4.746;2022-09-28T11:17:26;6.60;;;1.10;;
15312;SDS011;7757;52.626;4.746;2022-09-28T11:19:54;2.15;;;0.85;;
15312;SDS011;7757;52.626;4.746;2022-09-28T11:22:24;2.00;;;0.77;;
15312;SDS011;7757;52.626;4.746;2022-09-28T11:27:55;1.33;;;0.65;;
15312;SDS011;7757;52.626;4.746;2022-09-28T11:30:24;19.98;;;3.25;;
15312;SDS011;7757;52.626;4.746;2022-09-28T11:32:55;23.00;;;5.07;;
15312;SDS011;7757;52.626;4.746;2022-09-28T11:35:30;19.52;;;3.58;;
15312;SDS011;7757;52.626;4.746;2022-09-28T11:38:11;14.75;;;2.65;;
15312;SDS011;7757;52.626;4.746;2022-09-28T11:43:26;14.18;;;2.38;;
15312;SDS011;7757;52.626;4.746;2022-09-28T11:46:12;11.02;;;1.90;;
15312;SDS011;7757;52.626;4.746;2022-09-28T11:48:48;13.13;;;2.25;;
15312;SDS011;7757;52.626;4.746;2022-09-28T11:51:20;12.83;;;2.50;;
15312;SDS011;7757;52.626;4.746;2022-09-28T11:53:51;10.32;;;1.88;;
15312;SDS011;7757;52.626;4.746;2022-09-28T11:56:25;10.88;;;2.05;;
15312;SDS011;7757;52.626;4.746;2022-09-28T11:58:59;10.93;;;1.60;;
15312;SDS011;7757;52.626;4.746;2022-09-28T12:01:32;14.85;;;2.03;;
15312;SDS011;7757;52.626;4.746;2022-09-28T12:04:06;15.60;;;2.88;;
15312;SDS011;7757;52.626;4.746;2022-09-28T12:09:07;15.50;;;2.10;;
15312;SDS011;7757;52.626;4.746;2022-09-28T12:11:41;11.82;;;2.45;;
15312;SDS011;7757;52.626;4.746;2022-09-28T12:14:15;9.18;;;1.80;;
15312;SDS011;7757;52.626;4.746;2022-09-28T12:16:46;11.40;;;2.35;;
15312;SDS011;7757;52.626;4.746;2022-09-28T12:19:21;12.97;;;2.43;;
15312;SDS011;7757;52.626;4.746;2022-09-28T12:21:54;8.40;;;1.30;;
15312;SDS011;7757;52.626;4.746;2022-09-28T12:24:23;9.88;;;1.90;;
15312;SDS011;7757;52.626;4.746;2022-09-28T12:26:53;8.85;;;1.70;;
15312;SDS011;7757;52.626;4.746;2022-09-28T12:29:25;11.57;;;2.00;;
15312;SDS011;7757;52.626;4.746;2022-09-28T12:31:58;12.65;;;2.40;;
15312;SDS011;7757;52.626;4.746;2022-09-28T12:34:32;12.50;;;3.10;;
15312;SDS011;7757;52.626;4.746;2022-09-28T12:37:05;13.35;;;2.45;;
15312;SDS011;7757;52.626;4.746;2022-09-28T12:39:45;12.63;;;2.63;;
15312;SDS011;7757;52.626;4.746;2022-09-28T12:42:22;15.93;;;2.80;;
15312;SDS011;7757;52.626;4.746;2022-09-28T12:48:02;13.82;;;2.10;;
15312;SDS011;7757;52.626;4.746;2022-09-28T12:50:43;12.50;;;2.38;;
15312;SDS011;7757;52.626;4.746;2022-09-28T12:53:32;9.45;;;2.10;;
15312;SDS011;7757;52.626;4.746;2022-09-28T12:56:12;10.32;;;2.00;;
15312;SDS011;7757;52.626;4.746;2022-09-28T12:58:50;9.82;;;1.90;;
15312;SDS011;7757;52.626;4.746;2022-09-28T13:01:35;10.43;;;1.80;;
15312;SDS011;7757;52.626;4.746;2022-09-28T13:04:17;9.85;;;1.65;;
15312;SDS011;7757;52.626;4.746;2022-09-28T13:07:05;8.98;;;1.65;;
15312;SDS011;7757;52.626;4.746;2022-09-28T13:09:38;8.80;;;1.77;;
15312;SDS011;7757;52.626;4.746;2022-09-28T13:12:24;7.32;;;1.17;;
15312;SDS011;7757;52.626;4.746;2022-09-28T13:15:07;7.57;;;1.45;;
15312;SDS011;7757;52.626;4.746;2022-09-28T13:17:47;13.63;;;1.67;;
15312;SDS011;7757;52.626;4.746;2022-09-28T13:20:29;5.47;;;1.25;;
15312;SDS011;7757;52.626;4.746;2022-09-28T13:23:13;8.68;;;1.38;;
15312;SDS011;7757;52.626;4.746;2022-09-28T13:25:45;6.32;;;1.10;;
15312;SDS011;7757;52.626;4.746;2022-09-28T13:28:19;5.05;;;0.95;;
15312;SDS011;7757;52.626;4.746;2022-09-28T13:30:47;6.60;;;1.10;;
15312;SDS011;7757;52.626;4.746;2022-09-28T13:33:17;5.30;;;1.25;;
15312;SDS011;7757;52.626;4.746;2022-09-28T13:35:48;2.17;;;0.52;;
15312;SDS011;7757;52.626;4.746;2022-09-28T13:38:29;3.67;;;0.85;;
15312;SDS011;7757;52.626;4.746;2022-09-28T13:41:08;3.60;;;1.23;;
15312;SDS011;7757;52.626;4.746;2022-09-28T13:43:40;5.32;;;1.00;;
15312;SDS011;7757;52.626;4.746;2022-09-28T13:46:21;5.78;;;1.20;;
15312;SDS011;7757;52.626;4.746;2022-09-28T13:48:55;5.13;;;1.27;;
15312;SDS011;7757;52.626;4.746;2022-09-28T13:51:34;2.83;;;0.60;;
15312;SDS011;7757;52.626;4.746;2022-09-28T13:54:14;4.93;;;1.00;;
15312;SDS011;7757;52.626;4.746;2022-09-28T13:56:52;2.38;;;0.63;;
15312;SDS011;7757;52.626;4.746;2022-09-28T13:59:25;3.13;;;0.80;;
15312;SDS011;7757;52.626;4.746;2022-09-28T14:01:56;4.28;;;0.90;;
15312;SDS011;7757;52.626;4.746;2022-09-28T14:07:14;4.80;;;0.93;;
15312;SDS011;7757;52.626;4.746;2022-09-28T14:09:46;3.88;;;0.90;;
15312;SDS011;7757;52.626;4.746;2022-09-28T14:12:28;7.30;;;0.90;;
15312;SDS011;7757;52.626;4.746;2022-09-28T14:15:37;2.87;;;0.90;;
15312;SDS011;7757;52.626;4.746;2022-09-28T14:18:09;4.07;;;0.80;;
15312;SDS011;7757;52.626;4.746;2022-09-28T14:20:55;1.65;;;0.52;;
15312;SDS011;7757;52.626;4.746;2022-09-28T14:23:43;2.38;;;0.75;;
15312;SDS011;7757;52.626;4.746;2022-09-28T14:26:33;2.28;;;0.73;;
15312;SDS011;7757;52.626;4.746;2022-09-28T14:29:21;5.35;;;0.82;;
15312;SDS011;7757;52.626;4.746;2022-09-28T14:31:55;3.10;;;0.77;;
15312;SDS011;7757;52.626;4.746;2022-09-28T14:34:30;3.33;;;0.85;;
15312;SDS011;7757;52.626;4.746;2022-09-28T14:36:59;4.22;;;0.70;;
15312;SDS011;7757;52.626;4.746;2022-09-28T14:39:46;2.58;;;0.73;;
15312;SDS011;7757;52.626;4.746;2022-09-28T14:42:32;2.80;;;0.60;;
15312;SDS011;7757;52.626;4.746;2022-09-28T14:48:04;3.03;;;0.70;;
15312;SDS011;7757;52.626;4.746;2022-09-28T14:50:39;1.17;;;0.50;;
15312;SDS011;7757;52.626;4.746;2022-09-28T14:53:08;3.55;;;0.70;;
15312;SDS011;7757;52.626;4.746;2022-09-28T14:55:39;1.95;;;0.65;;
15312;SDS011;7757;52.626;4.746;2022-09-28T14:58:16;1.98;;;1.00;;
15312;SDS011;7757;52.626;4.746;2022-09-28T15:00:46;4.13;;;0.88;;
15312;SDS011;7757;52.626;4.746;2022-09-28T15:03:16;8.20;;;2.33;;
15312;SDS011;7757;52.626;4.746;2022-09-28T15:05:45;4.10;;;1.10;;
15312;SDS011;7757;52.626;4.746;2022-09-28T15:08:13;4.20;;;1.23;;
15312;SDS011;7757;52.626;4.746;2022-09-28T15:10:43;5.85;;;1.90;;
15312;SDS011;7757;52.626;4.746;2022-09-28T15:13:17;8.07;;;2.17;;
15312;SDS011;7757;52.626;4.746;2022-09-28T15:15:47;9.57;;;2.05;;
15312;SDS011;7757;52.626;4.746;2022-09-28T15:18:26;17.02;;;5.88;;
15312;SDS011;7757;52.626;4.746;2022-09-28T15:21:07;7.22;;;1.85;;
15312;SDS011;7757;52.626;4.746;2022-09-28T15:23:35;9.48;;;2.03;;
15312;SDS011;7757;52.626;4.746;2022-09-28T15:26:04;8.35;;;2.25;;
15312;SDS011;7757;52.626;4.746;2022-09-28T15:28:34;9.65;;;2.83;;
15312;SDS011;7757;52.626;4.746;2022-09-28T15:31:03;11.20;;;2.78;;
15312;SDS011;7757;52.626;4.746;2022-09-28T15:33:30;9.88;;;2.88;;
15312;SDS011;7757;52.626;4.746;2022-09-28T15:36:17;6.63;;;1.60;;
15312;SDS011;7757;52.626;4.746;2022-09-28T15:38:48;7.18;;;2.08;;
15312;SDS011;7757;52.626;4.746;2022-09-28T15:41:19;9.63;;;3.40;;
15312;SDS011;7757;52.626;4.746;2022-09-28T15:44:02;14.60;;;4.88;;
15312;SDS011;7757;52.626;4.746;2022-09-28T15:46:32;7.03;;;2.00;;
15312;SDS011;7757;52.626;4.746;2022-09-28T15:49:00;15.75;;;4.72;;
15312;SDS011;7757;52.626;4.746;2022-09-28T15:51:28;10.32;;;2.70;;
15312;SDS011;7757;52.626;4.746;2022-09-28T15:53:58;16.95;;;3.90;;